Time;durP1;ratioP1;P1;durP2;ratioP2;P2;SDS_P1;SDS_P2;PMS_P1;PMS_P2;Temp;Humidity;BMP_temperature;BMP_pressure;BME280_temperature;BME280_humidity;BME280_pressure;Samples;Min_cycle;Max_cycle;Signal;HPM_P1;HPM_P2
2022/12/31 00:00:46;;;;;;;1.37;1.37;;;;;;;;;;4940441;28;20211;-63
2022/12/31 00:03:13;;;;;;;1.60;1.50;;;;;;;;;;4952388;28;20268;-63
2022/12/31 00:05:41;;;;;;;1.60;1.50;;;;;;;;;;4920663;28;20291;-62
2022/12/31 00:08:09;;;;;;;1.83;1.53;;;;;;;;;;4937801;28;20209;-62
2022/12/31 00:10:40;;;;;;;1.23;1.23;;;;;;;;;;4944800;28;20228;-62
2022/12/31 00:13:09;;;;;;;1.30;1.30;;;;;;;;;;4921895;28;20720;-62
2022/12/31 00:15:37;;;;;;;1.00;1.00;;;;;;;;;;4921288;28;20216;-62
2022/12/31 00:18:04;;;;;;;1.10;1.10;;;;;;;;;;4937665;28;20220;-62
2022/12/31 00:20:32;;;;;;;1.40;1.40;;;;;;;;;;4912317;28;20217;-62
2022/12/31 00:22:59;;;;;;;0.93;0.93;;;;;;;;;;4925385;28;20237;-62
2022/12/31 00:25:27;;;;;;;1.33;1.23;;;;;;;;;;4921852;28;20268;-62
2022/12/31 00:27:55;;;;;;;1.60;1.50;;;;;;;;;;4921458;28;20215;-62
2022/12/31 00:30:22;;;;;;;1.30;1.10;;;;;;;;;;4913096;28;20375;-62
2022/12/31 00:32:51;;;;;;;1.20;1.10;;;;;;;;;;4922939;28;20788;-62
2022/12/31 00:35:18;;;;;;;1.20;1.10;;;;;;;;;;4936866;28;20800;-62
2022/12/31 00:37:46;;;;;;;1.57;1.00;;;;;;;;;;4926927;28;20315;-62
2022/12/31 00:40:14;;;;;;;1.20;0.90;;;;;;;;;;4918412;28;20220;-62
2022/12/31 00:42:41;;;;;;;1.10;1.10;;;;;;;;;;4926674;28;20216;-62
2022/12/31 00:45:09;;;;;;;1.10;1.10;;;;;;;;;;4915725;28;20217;-62
2022/12/31 00:47:37;;;;;;;1.00;1.00;;;;;;;;;;4915460;28;20360;-62
2022/12/31 00:50:05;;;;;;;1.20;1.10;;;;;;;;;;4912702;28;20237;-62
2022/12/31 00:52:32;;;;;;;1.20;1.20;;;;;;;;;;4917457;28;20699;-62
2022/12/31 00:54:59;;;;;;;1.90;1.10;;;;;;;;;;4911777;28;20562;-62
2022/12/31 00:57:27;;;;;;;1.03;1.03;;;;;;;;;;4917098;28;20475;-62
2022/12/31 00:59:55;;;;;;;1.00;1.00;;;;;;;;;;4929717;28;20228;-62
2022/12/31 01:02:22;;;;;;;1.30;1.30;;;;;;;;;;4918511;28;20241;-63
2022/12/31 01:04:50;;;;;;;1.10;1.00;;;;;;;;;;4921127;28;20212;-62
2022/12/31 01:07:17;;;;;;;1.27;1.27;;;;;;;;;;4921001;28;20299;-61
2022/12/31 01:09:45;;;;;;;1.37;1.20;;;;;;;;;;4925297;28;21250;-62
2022/12/31 01:12:12;;;;;;;1.30;1.20;;;;;;;;;;4938195;28;20710;-61
2022/12/31 01:14:40;;;;;;;1.30;1.30;;;;;;;;;;4946244;28;20739;-61
2022/12/31 01:17:07;;;;;;;1.33;1.30;;;;;;;;;;4959074;28;20217;-62
2022/12/31 01:19:34;;;;;;;2.40;1.10;;;;;;;;;;4937145;28;20271;-62
2022/12/31 01:22:02;;;;;;;1.30;1.20;;;;;;;;;;4927078;28;20223;-62
2022/12/31 01:24:29;;;;;;;1.10;1.10;;;;;;;;;;4924052;28;20252;-62
2022/12/31 01:26:56;;;;;;;1.97;1.40;;;;;;;;;;4926737;28;20221;-62
2022/12/31 01:29:24;;;;;;;1.30;1.30;;;;;;;;;;4922308;28;20209;-62
2022/12/31 01:31:52;;;;;;;1.33;1.23;;;;;;;;;;4920205;28;20208;-63
2022/12/31 01:34:20;;;;;;;1.40;1.40;;;;;;;;;;4910811;28;20459;-64
2022/12/31 01:36:48;;;;;;;1.70;1.60;;;;;;;;;;4924903;28;20213;-62
2022/12/31 01:39:16;;;;;;;1.40;1.33;;;;;;;;;;4915884;28;20208;-62
2022/12/31 01:41:45;;;;;;;1.53;1.47;;;;;;;;;;4934895;28;20213;-63
2022/12/31 01:44:12;;;;;;;1.37;1.20;;;;;;;;;;4939028;28;20288;-62
2022/12/31 01:46:47;;;;;;;1.50;1.40;;;;;;;;;;4915409;28;20218;-62
2022/12/31 01:49:23;;;;;;;1.60;1.50;;;;;;;;;;4909501;28;20388;-62
2022/12/31 01:51:56;;;;;;;1.47;1.40;;;;;;;;;;4915748;28;20867;-62
2022/12/31 01:54:25;;;;;;;1.50;1.30;;;;;;;;;;4917635;28;20232;-62
2022/12/31 01:56:54;;;;;;;1.60;1.50;;;;;;;;;;4932705;28;20776;-62
2022/12/31 01:59:24;;;;;;;1.20;1.20;;;;;;;;;;4909374;28;20976;-62
2022/12/31 02:01:52;;;;;;;1.47;1.37;;;;;;;;;;4932627;28;20209;-62
2022/12/31 02:04:21;;;;;;;1.50;1.40;;;;;;;;;;4913922;28;20242;-62
2022/12/31 02:06:51;;;;;;;1.90;1.43;;;;;;;;;;4933871;28;20224;-62
2022/12/31 02:09:19;;;;;;;1.40;1.30;;;;;;;;;;4937262;28;20309;-62
2022/12/31 02:11:46;;;;;;;1.60;1.50;;;;;;;;;;4925664;28;20280;-62
2022/12/31 02:14:20;;;;;;;1.73;1.53;;;;;;;;;;4919988;28;20323;-64
2022/12/31 02:17:06;;;;;;;1.33;1.30;;;;;;;;;;4921348;28;20631;-63
2022/12/31 02:19:53;;;;;;;2.00;1.50;;;;;;;;;;4918020;28;20213;-62
2022/12/31 02:22:23;;;;;;;1.40;1.40;;;;;;;;;;4918791;28;20390;-63
2022/12/31 02:24:57;;;;;;;1.60;1.50;;;;;;;;;;4911029;28;20205;-62
2022/12/31 02:27:31;;;;;;;1.53;1.43;;;;;;;;;;4912449;28;20222;-62
2022/12/31 02:30:13;;;;;;;1.73;1.53;;;;;;;;;;4918055;28;20272;-63
2022/12/31 02:33:00;;;;;;;1.50;1.40;;;;;;;;;;4935264;28;22133;-64
2022/12/31 02:35:36;;;;;;;1.50;1.40;;;;;;;;;;4932156;28;20694;-63
2022/12/31 02:38:05;;;;;;;1.30;1.20;;;;;;;;;;4950849;28;20292;-63
2022/12/31 02:40:34;;;;;;;1.30;1.30;;;;;;;;;;4931697;28;20296;-63
2022/12/31 02:43:01;;;;;;;1.30;1.20;;;;;;;;;;4936064;28;20236;-63
2022/12/31 02:45:35;;;;;;;1.50;1.40;;;;;;;;;;4911445;28;20308;-62
2022/12/31 02:48:02;;;;;;;1.50;1.40;;;;;;;;;;4906350;28;20217;-63
2022/12/31 02:50:35;;;;;;;1.73;1.63;;;;;;;;;;4914044;28;20239;-62
2022/12/31 02:53:23;;;;;;;1.30;1.30;;;;;;;;;;4921038;28;20241;-63
2022/12/31 02:55:58;;;;;;;1.53;1.40;;;;;;;;;;4930148;28;20206;-63
2022/12/31 03:07:09;;;;;;;1.40;1.30;;;;;;;;;;4920928;28;20329;-64
2022/12/31 03:09:37;;;;;;;2.63;1.43;;;;;;;;;;4913145;28;20327;-62
2022/12/31 03:14:52;;;;;;;1.30;1.20;;;;;;;;;;4949357;28;20240;-62
2022/12/31 03:17:19;;;;;;;2.03;1.27;;;;;;;;;;4935562;28;20289;-63
2022/12/31 03:22:35;;;;;;;1.20;1.20;;;;;;;;;;4939349;28;20462;-62
2022/12/31 03:27:54;;;;;;;1.27;1.27;;;;;;;;;;4937144;28;20201;-62
2022/12/31 03:30:22;;;;;;;1.20;1.20;;;;;;;;;;4911876;28;20891;-63
2022/12/31 03:32:50;;;;;;;1.40;1.30;;;;;;;;;;4917498;28;20229;-64
2022/12/31 03:35:19;;;;;;;1.30;1.20;;;;;;;;;;4902099;28;20891;-64
2022/12/31 03:37:47;;;;;;;1.30;1.30;;;;;;;;;;4920674;28;20210;-63
2022/12/31 03:40:15;;;;;;;1.33;1.33;;;;;;;;;;4910551;28;20212;-63
2022/12/31 03:42:43;;;;;;;2.00;1.30;;;;;;;;;;4933857;28;20372;-63
2022/12/31 03:45:14;;;;;;;2.67;1.40;;;;;;;;;;4912449;28;20669;-63
2022/12/31 03:47:43;;;;;;;1.50;1.23;;;;;;;;;;4917028;28;20284;-63
2022/12/31 03:50:11;;;;;;;1.10;1.10;;;;;;;;;;4931448;28;20251;-63
2022/12/31 03:52:38;;;;;;;1.43;1.33;;;;;;;;;;4934752;28;20230;-63
2022/12/31 03:55:08;;;;;;;1.20;1.10;;;;;;;;;;4918525;28;20209;-63
2022/12/31 03:57:35;;;;;;;1.60;1.40;;;;;;;;;;4913610;28;20233;-63
2022/12/31 04:00:04;;;;;;;1.50;1.40;;;;;;;;;;4913183;28;20210;-63
2022/12/31 04:02:32;;;;;;;2.70;1.63;;;;;;;;;;4924070;28;20303;-64
2022/12/31 04:05:03;;;;;;;1.67;1.50;;;;;;;;;;4938094;28;20236;-63
2022/12/31 04:07:30;;;;;;;1.50;1.40;;;;;;;;;;4910955;28;20205;-63
2022/12/31 04:09:59;;;;;;;1.67;1.57;;;;;;;;;;4922674;28;20212;-63
2022/12/31 04:12:26;;;;;;;1.63;1.57;;;;;;;;;;4917978;28;20260;-63
2022/12/31 04:14:53;;;;;;;1.57;1.40;;;;;;;;;;4911962;28;20683;-63
2022/12/31 04:17:21;;;;;;;1.80;1.70;;;;;;;;;;4930004;28;20677;-63
2022/12/31 04:19:48;;;;;;;2.30;1.50;;;;;;;;;;4917823;28;20283;-63
2022/12/31 04:22:16;;;;;;;1.60;1.50;;;;;;;;;;4920666;28;20217;-64
2022/12/31 04:24:44;;;;;;;1.70;1.60;;;;;;;;;;4916736;28;20352;-63
2022/12/31 04:27:12;;;;;;;1.77;1.67;;;;;;;;;;4916071;28;20679;-63
2022/12/31 04:29:39;;;;;;;1.30;1.30;;;;;;;;;;4918957;28;20291;-63
2022/12/31 04:32:07;;;;;;;1.83;1.73;;;;;;;;;;4920571;28;20324;-63
2022/12/31 04:34:34;;;;;;;1.80;1.70;;;;;;;;;;4917349;28;20315;-63
2022/12/31 04:37:03;;;;;;;1.80;1.70;;;;;;;;;;4931848;28;20209;-63
2022/12/31 04:39:34;;;;;;;1.80;1.70;;;;;;;;;;4934297;28;20212;-63
2022/12/31 04:42:01;;;;;;;2.27;1.80;;;;;;;;;;4915277;28;20216;-63
2022/12/31 04:44:28;;;;;;;1.40;1.30;;;;;;;;;;4913582;28;20288;-64
2022/12/31 04:46:56;;;;;;;3.47;1.90;;;;;;;;;;4918674;28;20451;-64
2022/12/31 04:49:23;;;;;;;1.40;1.40;;;;;;;;;;4921972;28;20288;-64
2022/12/31 04:51:51;;;;;;;1.63;1.53;;;;;;;;;;4937954;28;20324;-63
2022/12/31 04:54:18;;;;;;;1.63;1.40;;;;;;;;;;4924398;28;20534;-64
2022/12/31 04:56:45;;;;;;;1.83;1.40;;;;;;;;;;4921370;28;20217;-63
2022/12/31 04:59:13;;;;;;;1.57;1.53;;;;;;;;;;4921627;28;20680;-64
2022/12/31 05:01:40;;;;;;;2.10;1.50;;;;;;;;;;4913971;28;20217;-63
2022/12/31 05:04:08;;;;;;;1.60;1.50;;;;;;;;;;4924002;28;20240;-63
2022/12/31 05:06:35;;;;;;;1.53;1.50;;;;;;;;;;4921408;28;20268;-64
2022/12/31 05:09:03;;;;;;;1.73;1.50;;;;;;;;;;4926864;28;20205;-64
2022/12/31 05:11:30;;;;;;;1.50;1.40;;;;;;;;;;4944562;28;20672;-63
2022/12/31 05:13:57;;;;;;;3.40;1.57;;;;;;;;;;4936543;28;20263;-63
2022/12/31 05:16:25;;;;;;;1.73;1.63;;;;;;;;;;4942885;28;20209;-64
2022/12/31 05:18:53;;;;;;;1.30;1.30;;;;;;;;;;4957759;28;20236;-62
2022/12/31 05:21:21;;;;;;;1.50;1.50;;;;;;;;;;4939248;28;20233;-62
2022/12/31 05:23:52;;;;;;;1.30;1.30;;;;;;;;;;4923562;28;20320;-62
2022/12/31 05:26:19;;;;;;;1.37;1.27;;;;;;;;;;4938958;28;23427;-62
2022/12/31 05:28:47;;;;;;;1.70;1.60;;;;;;;;;;4922653;28;20214;-62
2022/12/31 05:31:14;;;;;;;1.43;1.37;;;;;;;;;;4918605;28;20233;-62
2022/12/31 05:33:42;;;;;;;1.90;1.60;;;;;;;;;;4912100;28;20225;-64
2022/12/31 05:36:09;;;;;;;1.40;1.40;;;;;;;;;;4941694;28;20237;-64
2022/12/31 05:38:37;;;;;;;2.90;1.50;;;;;;;;;;4912642;28;20213;-63
2022/12/31 05:41:06;;;;;;;1.67;1.57;;;;;;;;;;4921525;28;20292;-63
2022/12/31 05:43:33;;;;;;;1.80;1.70;;;;;;;;;;4917030;28;20237;-64
2022/12/31 05:46:02;;;;;;;1.63;1.53;;;;;;;;;;4931656;28;20217;-63
2022/12/31 05:48:30;;;;;;;2.20;1.80;;;;;;;;;;4912290;28;20216;-62
2022/12/31 05:50:57;;;;;;;2.23;2.00;;;;;;;;;;4917660;28;20237;-62
2022/12/31 05:53:25;;;;;;;1.60;1.50;;;;;;;;;;4915718;28;20232;-61
2022/12/31 05:55:53;;;;;;;2.00;1.90;;;;;;;;;;4912804;28;20623;-64
2022/12/31 05:58:20;;;;;;;2.03;1.70;;;;;;;;;;4911165;28;20452;-61
2022/12/31 06:00:47;;;;;;;1.90;1.80;;;;;;;;;;4912180;28;20339;-61
2022/12/31 06:03:15;;;;;;;1.90;1.70;;;;;;;;;;4920667;28;20233;-63
2022/12/31 06:05:43;;;;;;;1.90;1.43;;;;;;;;;;4930494;28;20691;-62
2022/12/31 06:08:11;;;;;;;2.93;1.70;;;;;;;;;;4916143;28;20308;-62
2022/12/31 06:10:40;;;;;;;1.40;1.40;;;;;;;;;;4906918;28;20210;-63
2022/12/31 06:13:07;;;;;;;2.17;1.83;;;;;;;;;;4914546;28;20310;-62
2022/12/31 06:15:38;;;;;;;2.13;1.80;;;;;;;;;;4925893;28;20884;-62
2022/12/31 06:18:06;;;;;;;1.93;1.53;;;;;;;;;;4918587;28;20209;-62
2022/12/31 06:20:37;;;;;;;2.47;1.57;;;;;;;;;;4913227;28;20347;-62
2022/12/31 06:23:05;;;;;;;1.80;1.70;;;;;;;;;;4938253;28;20229;-62
2022/12/31 06:25:34;;;;;;;2.40;2.20;;;;;;;;;;4918988;28;20244;-62
2022/12/31 06:28:01;;;;;;;3.70;2.10;;;;;;;;;;4917315;28;20213;-63
2022/12/31 06:30:29;;;;;;;2.20;2.10;;;;;;;;;;4917760;28;20377;-63
2022/12/31 06:32:59;;;;;;;2.20;2.03;;;;;;;;;;4939713;28;20236;-62
2022/12/31 06:35:26;;;;;;;1.73;1.63;;;;;;;;;;4934005;28;20299;-62
2022/12/31 06:37:53;;;;;;;1.70;1.60;;;;;;;;;;4939177;28;20787;-63
2022/12/31 06:40:21;;;;;;;2.50;2.30;;;;;;;;;;4926037;28;20204;-62
2022/12/31 06:42:49;;;;;;;1.60;1.50;;;;;;;;;;4934138;28;21248;-63
2022/12/31 06:45:27;;;;;;;2.00;1.50;;;;;;;;;;4928265;28;21158;-62
2022/12/31 06:47:54;;;;;;;1.83;1.73;;;;;;;;;;4931938;28;20299;-62
2022/12/31 06:50:21;;;;;;;2.10;1.90;;;;;;;;;;4923889;28;23235;-62
2022/12/31 06:52:49;;;;;;;1.80;1.70;;;;;;;;;;4937451;28;20300;-63
2022/12/31 06:55:16;;;;;;;2.80;1.63;;;;;;;;;;4912345;28;20217;-62
2022/12/31 06:57:44;;;;;;;1.80;1.70;;;;;;;;;;4909471;28;20296;-62
2022/12/31 07:00:12;;;;;;;3.47;1.77;;;;;;;;;;4907055;28;20208;-62
2022/12/31 07:02:59;;;;;;;1.70;1.60;;;;;;;;;;4913093;28;20221;-62
2022/12/31 07:05:45;;;;;;;2.23;2.03;;;;;;;;;;4917206;28;20213;-62
2022/12/31 07:08:24;;;;;;;1.93;1.83;;;;;;;;;;4926181;28;20213;-61
2022/12/31 07:10:52;;;;;;;3.40;2.17;;;;;;;;;;4938087;28;20217;-62
2022/12/31 07:13:26;;;;;;;2.30;2.10;;;;;;;;;;4943939;28;20228;-62
2022/12/31 07:15:56;;;;;;;2.10;1.80;;;;;;;;;;4959337;28;20220;-61
2022/12/31 07:18:34;;;;;;;2.57;1.70;;;;;;;;;;4944112;28;20226;-62
2022/12/31 07:21:02;;;;;;;2.03;1.93;;;;;;;;;;4939295;28;20228;-62
2022/12/31 07:23:29;;;;;;;1.93;1.83;;;;;;;;;;4946503;28;20228;-62
2022/12/31 07:26:05;;;;;;;1.90;1.80;;;;;;;;;;4948335;28;20829;-61
2022/12/31 07:28:36;;;;;;;2.67;2.03;;;;;;;;;;4925582;28;20212;-62
2022/12/31 07:31:03;;;;;;;1.70;1.60;;;;;;;;;;4936856;28;20210;-62
2022/12/31 07:33:31;;;;;;;2.40;1.70;;;;;;;;;;4922678;28;20233;-62
2022/12/31 07:36:07;;;;;;;2.10;2.00;;;;;;;;;;4918032;28;20945;-62
2022/12/31 07:38:51;;;;;;;1.70;1.60;;;;;;;;;;4924850;28;20256;-61
2022/12/31 07:41:38;;;;;;;1.63;1.53;;;;;;;;;;4918701;28;20291;-62
2022/12/31 07:44:09;;;;;;;3.97;3.30;;;;;;;;;;4924697;28;20238;-63
2022/12/31 07:46:42;;;;;;;2.07;1.97;;;;;;;;;;4916922;28;20217;-62
2022/12/31 07:49:10;;;;;;;11.27;7.40;;;;;;;;;;4921981;28;20216;-63
2022/12/31 07:51:39;;;;;;;16.50;11.67;;;;;;;;;;4922319;28;20298;-61
2022/12/31 07:54:07;;;;;;;7.00;4.60;;;;;;;;;;4910035;28;20239;-63
2022/12/31 07:56:40;;;;;;;4.97;4.33;;;;;;;;;;4922535;28;20263;-63
2022/12/31 07:59:25;;;;;;;2.07;1.97;;;;;;;;;;4915686;28;20201;-62
2022/12/31 08:02:16;;;;;;;2.73;2.30;;;;;;;;;;4924117;28;20216;-63
2022/12/31 08:04:54;;;;;;;2.20;2.00;;;;;;;;;;4922498;28;21227;-62
2022/12/31 08:07:25;;;;;;;2.70;2.50;;;;;;;;;;4942554;28;20205;-64
2022/12/31 08:10:12;;;;;;;2.63;2.43;;;;;;;;;;4918913;28;20209;-63
2022/12/31 08:12:45;;;;;;;2.20;2.10;;;;;;;;;;4930310;28;20214;-62
2022/12/31 08:15:14;;;;;;;2.20;2.00;;;;;;;;;;4901229;28;20256;-62
2022/12/31 08:17:41;;;;;;;3.27;2.97;;;;;;;;;;4913438;28;20271;-63
2022/12/31 08:20:15;;;;;;;2.50;2.30;;;;;;;;;;4928358;28;20216;-63
2022/12/31 08:22:46;;;;;;;4.97;4.10;;;;;;;;;;4900340;28;20213;-61
2022/12/31 08:25:17;;;;;;;5.53;3.33;;;;;;;;;;4913330;28;20223;-61
2022/12/31 08:27:56;;;;;;;5.97;5.47;;;;;;;;;;4911960;28;20209;-62
2022/12/31 08:30:29;;;;;;;7.17;6.00;;;;;;;;;;4944120;28;20212;-62
2022/12/31 08:33:18;;;;;;;13.43;12.07;;;;;;;;;;4953846;28;20614;-62
2022/12/31 08:36:05;;;;;;;4.10;3.70;;;;;;;;;;4943485;28;20221;-62
2022/12/31 08:38:35;;;;;;;4.37;3.97;;;;;;;;;;4952901;28;20221;-63
2022/12/31 08:41:09;;;;;;;3.17;2.57;;;;;;;;;;4944239;28;20283;-62
2022/12/31 08:43:41;;;;;;;3.43;2.53;;;;;;;;;;4935115;28;20226;-62
2022/12/31 08:46:18;;;;;;;2.50;2.30;;;;;;;;;;4934345;28;20210;-62
2022/12/31 08:48:49;;;;;;;2.00;1.90;;;;;;;;;;4954277;28;20209;-62
2022/12/31 08:51:23;;;;;;;1.60;1.50;;;;;;;;;;4933115;28;20340;-62
2022/12/31 08:53:54;;;;;;;1.70;1.60;;;;;;;;;;4936981;28;20256;-62
2022/12/31 08:56:32;;;;;;;2.37;2.17;;;;;;;;;;4924832;28;20214;-62
2022/12/31 08:59:09;;;;;;;2.57;2.37;;;;;;;;;;4929973;28;20704;-62
2022/12/31 09:01:52;;;;;;;2.20;2.00;;;;;;;;;;4935533;28;20343;-63
2022/12/31 09:04:25;;;;;;;1.53;1.50;;;;;;;;;;4945351;28;20374;-62
2022/12/31 09:06:58;;;;;;;1.97;1.30;;;;;;;;;;4934479;28;20237;-62
2022/12/31 09:09:31;;;;;;;1.40;1.30;;;;;;;;;;4940865;28;21109;-62
2022/12/31 09:11:59;;;;;;;1.87;1.77;;;;;;;;;;4930493;28;21315;-62
2022/12/31 09:14:47;;;;;;;1.60;1.50;;;;;;;;;;4927676;28;20260;-62
2022/12/31 09:17:30;;;;;;;2.60;1.60;;;;;;;;;;4934455;28;20717;-63
2022/12/31 09:19:58;;;;;;;1.63;1.53;;;;;;;;;;4912585;28;21693;-63
2022/12/31 09:22:26;;;;;;;1.60;1.50;;;;;;;;;;4907142;28;20312;-62
2022/12/31 09:24:53;;;;;;;1.50;1.40;;;;;;;;;;4929909;28;20932;-63
2022/12/31 09:27:24;;;;;;;1.60;1.50;;;;;;;;;;4932249;28;20256;-63
2022/12/31 09:30:00;;;;;;;2.33;2.13;;;;;;;;;;4907740;28;20778;-63
2022/12/31 09:32:37;;;;;;;1.40;1.30;;;;;;;;;;4905720;28;21580;-63
2022/12/31 09:35:06;;;;;;;2.00;1.60;;;;;;;;;;4917547;28;20213;-63
2022/12/31 09:37:47;;;;;;;2.83;2.53;;;;;;;;;;4915960;28;20208;-63
2022/12/31 09:40:20;;;;;;;1.90;1.80;;;;;;;;;;4921790;28;20267;-62
2022/12/31 09:42:48;;;;;;;1.93;1.70;;;;;;;;;;4925922;28;20283;-61
2022/12/31 09:45:19;;;;;;;2.53;2.03;;;;;;;;;;4918217;28;20219;-62
2022/12/31 09:48:01;;;;;;;2.00;1.80;;;;;;;;;;4911900;28;20259;-62
2022/12/31 09:50:32;;;;;;;1.47;1.37;;;;;;;;;;4899127;28;20216;-63
2022/12/31 09:53:08;;;;;;;1.30;1.30;;;;;;;;;;4918896;28;20673;-61
2022/12/31 09:55:48;;;;;;;3.03;1.47;;;;;;;;;;4916919;28;20213;-61
2022/12/31 09:58:37;;;;;;;1.30;1.20;;;;;;;;;;4907572;28;20689;-62
2022/12/31 10:01:05;;;;;;;1.60;1.50;;;;;;;;;;4923621;28;20296;-61
2022/12/31 10:03:42;;;;;;;1.33;1.30;;;;;;;;;;4916020;28;20697;-61
2022/12/31 10:06:16;;;;;;;1.65;1.48;;;;;;;;;;4908024;28;20208;-63
2022/12/31 10:08:49;;;;;;;1.20;1.20;;;;;;;;;;4899444;28;20271;-63
2022/12/31 10:11:24;;;;;;;1.48;1.38;;;;;;;;;;4901427;28;22570;-63
2022/12/31 10:14:10;;;;;;;1.40;1.35;;;;;;;;;;4919079;28;20236;-63
2022/12/31 10:16:52;;;;;;;1.43;1.33;;;;;;;;;;4924756;28;20311;-63
2022/12/31 10:19:46;;;;;;;2.78;1.40;;;;;;;;;;4941012;28;20242;-63
2022/12/31 10:22:32;;;;;;;1.70;1.30;;;;;;;;;;4950465;28;20213;-63
2022/12/31 10:25:22;;;;;;;1.40;1.30;;;;;;;;;;4946594;28;20241;-63
2022/12/31 10:28:05;;;;;;;2.13;1.42;;;;;;;;;;4938044;28;21451;-64
2022/12/31 10:30:34;;;;;;;1.73;1.08;;;;;;;;;;4931656;28;20228;-63
2022/12/31 10:33:16;;;;;;;1.58;1.20;;;;;;;;;;4921976;28;20244;-63
2022/12/31 10:35:53;;;;;;;2.50;1.50;;;;;;;;;;4932498;28;20704;-63
2022/12/31 10:38:27;;;;;;;1.05;1.05;;;;;;;;;;4933851;28;20213;-63
2022/12/31 10:41:24;;;;;;;1.75;1.30;;;;;;;;;;4929225;28;20201;-63
2022/12/31 10:44:10;;;;;;;1.17;1.10;;;;;;;;;;4937570;28;20739;-63
2022/12/31 10:46:41;;;;;;;1.23;1.10;;;;;;;;;;4941452;28;20213;-64
2022/12/31 10:49:14;;;;;;;2.47;1.35;;;;;;;;;;4936521;28;20642;-63
2022/12/31 10:51:42;;;;;;;1.10;1.10;;;;;;;;;;4922016;28;20260;-63
2022/12/31 10:54:18;;;;;;;1.00;1.00;;;;;;;;;;4917309;28;20234;-64
2022/12/31 10:57:06;;;;;;;2.25;1.45;;;;;;;;;;4907525;28;20458;-63
2022/12/31 10:59:53;;;;;;;1.48;1.38;;;;;;;;;;4928728;28;20220;-64
2022/12/31 11:02:36;;;;;;;3.70;1.88;;;;;;;;;;4910152;28;20201;-64
2022/12/31 11:05:22;;;;;;;1.08;1.08;;;;;;;;;;4923950;28;20253;-63
2022/12/31 11:08:07;;;;;;;1.33;1.23;;;;;;;;;;4911792;28;20458;-63
2022/12/31 11:10:53;;;;;;;0.90;0.90;;;;;;;;;;4921467;28;20205;-63
2022/12/31 11:13:44;;;;;;;1.10;1.00;;;;;;;;;;4932221;28;20781;-63
2022/12/31 11:16:21;;;;;;;1.52;1.10;;;;;;;;;;4939379;28;20308;-63
2022/12/31 11:18:48;;;;;;;1.23;1.20;;;;;;;;;;4935635;28;20201;-63
2022/12/31 11:21:25;;;;;;;1.05;1.05;;;;;;;;;;4922440;28;20221;-63
2022/12/31 11:24:02;;;;;;;1.40;1.30;;;;;;;;;;4922382;28;20606;-63
2022/12/31 11:26:35;;;;;;;1.00;0.90;;;;;;;;;;4928703;28;20365;-64
2022/12/31 11:29:24;;;;;;;1.15;1.08;;;;;;;;;;4914719;28;20217;-63
2022/12/31 11:32:14;;;;;;;1.17;1.10;;;;;;;;;;4915705;28;20221;-63
2022/12/31 11:34:48;;;;;;;0.95;0.95;;;;;;;;;;4932820;28;20313;-64
2022/12/31 11:37:18;;;;;;;1.73;0.85;;;;;;;;;;4922717;28;20886;-63
2022/12/31 11:40:15;;;;;;;1.73;0.82;;;;;;;;;;4915859;28;20201;-63
2022/12/31 11:42:51;;;;;;;0.93;0.93;;;;;;;;;;4914301;28;20224;-63
2022/12/31 11:45:22;;;;;;;1.30;0.88;;;;;;;;;;4917635;28;20303;-63
2022/12/31 11:48:12;;;;;;;1.42;0.90;;;;;;;;;;4934699;28;22001;-63
2022/12/31 11:51:15;;;;;;;1.02;1.02;;;;;;;;;;4922671;28;20213;-64
2022/12/31 11:53:42;;;;;;;0.98;0.98;;;;;;;;;;4926968;28;20310;-63
2022/12/31 11:56:10;;;;;;;4.57;3.70;;;;;;;;;;4925143;28;20201;-63
2022/12/31 11:58:38;;;;;;;3.60;2.97;;;;;;;;;;4918451;28;20217;-62
2022/12/31 12:01:09;;;;;;;2.05;1.85;;;;;;;;;;4942767;28;20209;-63
2022/12/31 12:03:41;;;;;;;2.22;1.20;;;;;;;;;;4932734;28;20242;-63
2022/12/31 12:06:11;;;;;;;1.95;0.85;;;;;;;;;;4935324;28;20701;-63
2022/12/31 12:08:38;;;;;;;0.85;0.85;;;;;;;;;;4940328;28;20236;-63
2022/12/31 12:11:08;;;;;;;1.92;0.95;;;;;;;;;;4917426;28;20586;-62
2022/12/31 12:13:35;;;;;;;1.00;1.00;;;;;;;;;;4937221;28;20260;-62
2022/12/31 12:16:05;;;;;;;1.30;0.98;;;;;;;;;;4914619;28;20253;-63
2022/12/31 12:18:35;;;;;;;1.10;1.00;;;;;;;;;;4916882;28;20213;-63
2022/12/31 12:21:06;;;;;;;1.52;0.88;;;;;;;;;;4919283;28;20299;-63
2022/12/31 12:23:33;;;;;;;0.82;0.82;;;;;;;;;;4921222;28;20328;-63
2022/12/31 12:26:01;;;;;;;0.98;0.98;;;;;;;;;;4912009;28;20220;-62
2022/12/31 12:28:29;;;;;;;0.73;0.73;;;;;;;;;;4918341;28;20216;-62
2022/12/31 12:30:59;;;;;;;1.00;1.00;;;;;;;;;;4930575;28;20236;-62
2022/12/31 12:33:28;;;;;;;2.20;1.10;;;;;;;;;;4924018;28;20244;-62
2022/12/31 12:36:09;;;;;;;1.00;1.00;;;;;;;;;;4911119;28;20434;-62
2022/12/31 12:38:36;;;;;;;1.08;1.00;;;;;;;;;;4936779;28;20217;-63
2022/12/31 12:41:05;;;;;;;0.80;0.80;;;;;;;;;;4934076;28;20215;-64
2022/12/31 12:43:34;;;;;;;1.27;1.17;;;;;;;;;;4915994;28;20315;-64
2022/12/31 12:46:06;;;;;;;1.20;1.10;;;;;;;;;;4924445;28;20288;-64
2022/12/31 12:48:41;;;;;;;1.20;1.10;;;;;;;;;;4921213;28;20334;-63
2022/12/31 12:51:13;;;;;;;2.20;1.30;;;;;;;;;;4925511;28;20347;-63
2022/12/31 12:54:00;;;;;;;2.25;1.83;;;;;;;;;;4925333;28;20245;-63
2022/12/31 12:56:43;;;;;;;1.73;1.63;;;;;;;;;;4926212;28;20291;-63
2022/12/31 12:59:28;;;;;;;1.70;1.60;;;;;;;;;;4944702;28;20210;-63
2022/12/31 13:02:00;;;;;;;1.60;1.50;;;;;;;;;;4943981;28;20233;-63
2022/12/31 13:04:58;;;;;;;1.90;1.80;;;;;;;;;;4925775;28;20316;-62
2022/12/31 13:07:38;;;;;;;2.10;1.90;;;;;;;;;;4922325;28;20720;-63
2022/12/31 13:10:05;;;;;;;1.50;1.40;;;;;;;;;;4925145;28;20820;-62
2022/12/31 13:12:38;;;;;;;2.13;1.92;;;;;;;;;;4942032;28;20209;-64
2022/12/31 13:15:31;;;;;;;1.92;1.83;;;;;;;;;;4964399;28;20213;-62
2022/12/31 13:18:05;;;;;;;1.80;1.70;;;;;;;;;;4946437;28;20795;-64
2022/12/31 13:20:49;;;;;;;1.63;1.52;;;;;;;;;;4964809;28;20264;-64
2022/12/31 13:23:16;;;;;;;2.28;1.40;;;;;;;;;;4944815;28;20364;-62
2022/12/31 13:25:50;;;;;;;2.58;1.73;;;;;;;;;;4930212;28;20582;-62
2022/12/31 13:28:18;;;;;;;3.22;2.92;;;;;;;;;;4940209;28;20251;-62
2022/12/31 13:30:48;;;;;;;4.68;3.08;;;;;;;;;;4925441;28;20216;-63
2022/12/31 13:33:15;;;;;;;3.30;2.67;;;;;;;;;;4943531;28;20236;-62
2022/12/31 13:35:53;;;;;;;2.25;2.05;;;;;;;;;;4922998;28;20300;-62
2022/12/31 13:38:25;;;;;;;3.03;1.90;;;;;;;;;;4924878;28;20276;-63
2022/12/31 13:40:56;;;;;;;1.80;1.70;;;;;;;;;;4950056;28;20213;-63
2022/12/31 13:43:43;;;;;;;1.70;1.60;;;;;;;;;;4936813;28;20311;-63
2022/12/31 13:46:36;;;;;;;1.92;1.40;;;;;;;;;;4908898;28;20556;-64
2022/12/31 13:49:16;;;;;;;2.67;1.20;;;;;;;;;;4943462;28;20209;-62
2022/12/31 13:51:51;;;;;;;1.20;1.20;;;;;;;;;;4940342;28;20225;-62
2022/12/31 13:54:23;;;;;;;1.83;1.50;;;;;;;;;;4918158;28;20272;-62
2022/12/31 13:56:51;;;;;;;1.83;1.60;;;;;;;;;;4920247;28;20214;-63
2022/12/31 13:59:21;;;;;;;1.80;1.60;;;;;;;;;;4938808;28;20320;-63
2022/12/31 14:01:54;;;;;;;1.73;1.63;;;;;;;;;;4930383;28;20279;-62
2022/12/31 14:04:33;;;;;;;1.70;1.60;;;;;;;;;;4918880;28;20244;-64
2022/12/31 14:07:09;;;;;;;1.30;1.10;;;;;;;;;;4901275;28;20436;-63
2022/12/31 14:09:37;;;;;;;1.23;1.17;;;;;;;;;;4934612;28;20672;-63
2022/12/31 14:12:11;;;;;;;1.40;1.30;;;;;;;;;;4909248;28;20327;-63
2022/12/31 14:14:43;;;;;;;2.30;1.40;;;;;;;;;;4908861;28;20365;-62
2022/12/31 14:17:14;;;;;;;1.67;1.05;;;;;;;;;;4915503;28;20269;-62
2022/12/31 14:20:07;;;;;;;0.90;0.90;;;;;;;;;;4918590;28;21410;-63
2022/12/31 14:22:48;;;;;;;0.88;0.88;;;;;;;;;;4872069;28;21028;-64
2022/12/31 14:25:19;;;;;;;1.23;1.13;;;;;;;;;;4932213;28;20236;-62
2022/12/31 14:27:47;;;;;;;2.20;1.33;;;;;;;;;;4898937;28;20209;-62
2022/12/31 14:30:20;;;;;;;1.45;1.35;;;;;;;;;;4912748;28;20213;-62
2022/12/31 14:32:47;;;;;;;1.35;1.30;;;;;;;;;;4921283;28;20233;-63
2022/12/31 14:35:24;;;;;;;1.02;1.02;;;;;;;;;;4923308;28;20297;-62
2022/12/31 14:37:54;;;;;;;1.00;1.00;;;;;;;;;;4958150;28;20220;-62
2022/12/31 14:40:34;;;;;;;1.10;1.10;;;;;;;;;;4933028;28;20713;-62
2022/12/31 14:43:11;;;;;;;1.60;1.23;;;;;;;;;;4919187;28;23264;-62
2022/12/31 14:45:45;;;;;;;1.08;1.08;;;;;;;;;;4906213;28;20204;-62
2022/12/31 14:48:22;;;;;;;1.15;1.15;;;;;;;;;;4903175;28;20217;-62
2022/12/31 14:50:50;;;;;;;1.52;1.42;;;;;;;;;;4902232;28;20601;-62
2022/12/31 14:53:21;;;;;;;2.60;1.27;;;;;;;;;;4910552;28;20989;-62
2022/12/31 14:55:59;;;;;;;1.70;1.60;;;;;;;;;;4927520;28;20198;-63
2022/12/31 14:58:35;;;;;;;2.03;1.80;;;;;;;;;;4900232;28;20220;-62
2022/12/31 15:01:05;;;;;;;1.77;1.67;;;;;;;;;;4927852;28;20208;-62
2022/12/31 15:03:35;;;;;;;2.42;2.22;;;;;;;;;;4923429;28;20243;-62
2022/12/31 15:06:12;;;;;;;2.35;2.17;;;;;;;;;;4924735;28;21988;-62
2022/12/31 15:08:48;;;;;;;1.98;1.63;;;;;;;;;;4928178;28;20350;-62
2022/12/31 15:11:35;;;;;;;1.88;1.73;;;;;;;;;;4952647;28;20318;-62
2022/12/31 15:14:21;;;;;;;2.33;1.80;;;;;;;;;;4927830;28;20291;-63
2022/12/31 15:16:52;;;;;;;2.67;2.28;;;;;;;;;;4935282;28;20272;-62
2022/12/31 15:19:19;;;;;;;5.53;5.03;;;;;;;;;;4954030;28;20217;-63
2022/12/31 15:21:46;;;;;;;5.88;5.38;;;;;;;;;;4949838;28;20205;-63
2022/12/31 15:24:24;;;;;;;4.15;3.20;;;;;;;;;;4943336;28;20355;-63
2022/12/31 15:26:53;;;;;;;4.25;3.47;;;;;;;;;;4962854;28;20255;-63
2022/12/31 15:29:26;;;;;;;4.18;3.63;;;;;;;;;;4953760;28;20232;-63
2022/12/31 15:31:54;;;;;;;5.45;3.97;;;;;;;;;;4948645;28;20648;-63